Terminal Aerodrome Forecast
Issued by NWS

Home | Current Version | Previous Version | Text Only | Print | Product List | Glossary On
Versions: 1 2 3 4 5 6 7 8 9 10 11 12 13 14 15 16 17 18 19
000
FTUS43 KDTX 281314 AAA
TAFYIP
TAF AMD
KYIP 281314Z 2813/2912 09005KT P6SM OVC100
     FM281400 11007KT P6SM -SHRA SCT060 OVC100
      TEMPO 2814/2816 3SM RA BR OVC050
     FM281600 13010G20KT 3SM SHRA OVC030
     FM282100 06007KT 6SM -SHRA OVC045
     FM290800 06010KT 4SM -SHRA BR OVC012=

USA.gov is the U.S. government's official web portal to all federal, state and local government web resources and services.